Sara Borchard — V2BY8 — position and weather

sailwx.info

Track history (hours):
 
Tides and Currents Weather Stations Pressure Air Temp Water Temp Dewpoint Dewpoint Depression Visibility Wind Speed Wind Dir Waves Ship Positions

Sara Borchard

Last reported at 2014-Sep-01 13:32 UTC. Time now 2014-Sep-01 13:53 UTC.
Position N 34°39' E 033°01'.

Length 134 m; draft 7.2 m.

Type: Ship (hazmat cat A). MMSI: 304962000.

Date/timePositionNaut miles runAvg speedWind from/ knotsBaromVisibWave heightAir tempDewpointWater temp
2014-Sep-01 13:32N 34°39' E 033°01'0 0.0
2014-Sep-01 12:31N 34°39' E 033°01'1 1.5
2014-Sep-01 11:33N 34°39' E 033°03'4 4.1
2014-Sep-01 10:33N 34°35' E 033°04'1111.5
2014-Sep-01 09:34N 34°32' E 032°50'1313.1
2014-Sep-01 08:33N 34°33' E 032°35'  
2014-Aug-29 00:18N 42°29' E 009°51'1317.4
2014-Aug-28 23:33N 42°41' E 009°45'4916.3
2014-Aug-28 20:33N 43°28' E 009°26'1716.5
2014-Aug-28 19:33N 43°44' E 009°18'1716.6
2014-Aug-28 18:33N 43°59' E 009°08'1716.7
2014-Aug-28 17:33N 44°14' E 008°59'1110.8
2014-Aug-28 16:32N 44°24' E 008°54'0 0.0
2014-Aug-28 15:32N 44°24' E 008°54'0 0.0
2014-Aug-28 14:28N 44°24' E 008°54'0 0.0
2014-Aug-28 13:31N 44°24' E 008°54'0 0.0
2014-Aug-28 12:31N 44°24' E 008°54'0 0.0
2014-Aug-28 11:33N 44°24' E 008°54'0 0.0
2014-Aug-28 10:33N 44°24' E 008°54'6 6.1
2014-Aug-28 09:33N 44°20' E 008°59'1111.4
2014-Aug-28 08:33N 44°11' E 008°48'1212.3
2014-Aug-28 07:33N 44°03' E 008°36'1313.1
2014-Aug-28 06:33N 43°54' E 008°23'4413.1
2014-Aug-28 03:13N 43°25' E 007°37'2313.7
2014-Aug-28 01:33N 43°13' E 007°10'1414.1
2014-Aug-28 00:32N 43°04' E 006°55'1313.6
2014-Aug-27 23:33N 42°56' E 006°40'1312.9
2014-Aug-27 22:33N 42°53' E 006°23'1413.9
2014-Aug-27 21:33N 42°53' E 006°04'1413.6
2014-Aug-27 20:33N 42°57' E 005°46'1716.8
2014-Aug-27 19:34N 43°05' E 005°26'1110.9
2014-Aug-27 18:33N 43°09' E 005°12'1111.1
2014-Aug-27 17:33N 43°20' E 005°17'3 2.6
2014-Aug-27 16:31N 43°21' E 005°20'0 0.0
2014-Aug-27 15:31N 43°21' E 005°20'0 0.0
2014-Aug-27 14:33N 43°21' E 005°20'0 0.0
2014-Aug-27 13:21N 43°21' E 005°20'0 0.0
2014-Aug-27 10:33N 43°21' E 005°20'8 7.9
2014-Aug-27 09:33N 43°16' E 005°11'1111.5
2014-Aug-27 08:33N 43°05' E 005°06'1513.7
2014-Aug-27 07:26N 42°54' E 004°52'1214.2
2014-Aug-27 06:33N 42°45' E 004°41'1613.9
2014-Aug-27 05:22N 42°33' E 004°26'3314.4
2014-Aug-27 03:05N 42°10' E 003°54'815.3
2014-Aug-27 02:33N 42°05' E 003°45'1313.4
2014-Aug-27 01:33N 41°57' E 003°31'1514.6
2014-Aug-27 00:33N 41°48' E 003°15'1414.1
2014-Aug-26 23:33N 41°40' E 002°60'1414.3
2014-Aug-26 22:33N 41°31' E 002°45'1514.8
2014-Aug-26 21:33N 41°23' E 002°28'1514.6
2014-Aug-26 20:33N 41°16' E 002°11'5 4.7
2014-Aug-26 19:28N 41°21' E 002°10'0 0.0
2014-Aug-26 18:10N 41°21' E 002°10'0 0.0
2014-Aug-26 16:33N 41°21' E 002°10'0 0.0
2014-Aug-26 15:27N 41°21' E 002°10'0 0.0
2014-Aug-26 13:13N 41°21' E 002°10'1 2.1
2014-Aug-26 12:33N 41°20' E 002°10'1111.4
2014-Aug-26 11:33N 41°11' E 002°01'1717.5
2014-Aug-26 10:33N 41°01' E 001°41'1817.5
2014-Aug-26 09:33N 40°51' E 001°22'1817.7
2014-Aug-26 08:33N 40°41' E 001°03'1717.6
2014-Aug-26 07:33N 40°29' E 000°47'1817.7
2014-Aug-26 06:33N 40°16' E 000°31'1817.4
2014-Aug-26 05:31N 40°03' E 000°14'10 1.4
2014-Aug-25 22:29N 39°57' E 000°04'1110.8
2014-Aug-25 21:26N 39°52' E 000°17'1112.6
2014-Aug-25 20:33N 39°47' E 000°30'1413.8
2014-Aug-25 19:34N 39°42' E 000°46'3014.6
2014-Aug-25 17:30N 39°30' E 001°22'1414.4
2014-Aug-25 16:33N 39°25' E 001°39'1414.5
2014-Aug-25 15:33N 39°20' E 001°56'1514.7
2014-Aug-25 14:33N 39°14' E 002°13'1514.6
2014-Aug-25 13:33N 39°09' E 002°31'1514.9
2014-Aug-25 12:33N 39°03' E 002°49'1515.1
2014-Aug-25 11:33N 38°58' E 003°07'1515.1
2014-Aug-25 10:33N 38°55' E 003°26'1515.1
2014-Aug-25 09:34N 38°51' E 003°45'1615.3
2014-Aug-25 08:32N 38°47' E 004°04'1515.5
2014-Aug-25 07:33N 38°44' E 004°23'23715.8
2014-Aug-24 16:32N 37°47' E 009°16'1715.5
2014-Aug-24 15:28N 37°43' E 009°37'1415.1
2014-Aug-24 14:33N 37°41' E 009°54'1515.2
2014-Aug-24 13:33N 37°38' E 010°13'1615.5
2014-Aug-24 12:33N 37°36' E 010°32'1715.8
2014-Aug-24 11:30N 37°33' E 010°53'1615.3
2014-Aug-24 10:29N 37°27' E 011°11'6215.8
2014-Aug-24 06:33N 37°00' E 012°21'1615.7
2014-Aug-24 05:33N 36°55' E 012°40'1616.0
2014-Aug-24 04:34N 36°50' E 012°58'1615.8
2014-Aug-24 03:33N 36°44' E 013°17'1615.5
2014-Aug-24 02:33N 36°40' E 013°35'1615.8
2014-Aug-24 01:34N 36°35' E 013°54'6816.0
2014-Aug-23 21:17N 36°12' E 015°14'1215.9
2014-Aug-23 20:33N 36°08' E 015°28'1615.7
2014-Aug-23 19:33N 36°04' E 015°46'  
Track history (hours):
 
Tides and Currents Weather Stations Pressure Air Temp Water Temp Dewpoint Dewpoint Depression Visibility Wind Speed Wind Dir Waves Ship Positions

Sara Borchard

Last reported at 2014-Sep-01 13:32 UTC. Time now 2014-Sep-01 13:53 UTC.
Position N 34°39' E 033°01'.

Length 134 m; draft 7.2 m.

Type: Ship (hazmat cat A). MMSI: 304962000.

Date/timePositionNaut miles runAvg speedWind from/ knotsBaromVisibWave heightAir tempDewpointWater temp
2014-Sep-01 13:32N 34°39' E 033°01'0 0.0
2014-Sep-01 12:31N 34°39' E 033°01'1 1.5
2014-Sep-01 11:33N 34°39' E 033°03'4 4.1
2014-Sep-01 10:33N 34°35' E 033°04'1111.5
2014-Sep-01 09:34N 34°32' E 032°50'1313.1
2014-Sep-01 08:33N 34°33' E 032°35'  
2014-Aug-29 00:18N 42°29' E 009°51'1317.4
2014-Aug-28 23:33N 42°41' E 009°45'4916.3
2014-Aug-28 20:33N 43°28' E 009°26'1716.5
2014-Aug-28 19:33N 43°44' E 009°18'1716.6
2014-Aug-28 18:33N 43°59' E 009°08'1716.7
2014-Aug-28 17:33N 44°14' E 008°59'1110.8
2014-Aug-28 16:32N 44°24' E 008°54'0 0.0
2014-Aug-28 15:32N 44°24' E 008°54'0 0.0
2014-Aug-28 14:28N 44°24' E 008°54'0 0.0
2014-Aug-28 13:31N 44°24' E 008°54'0 0.0
2014-Aug-28 12:31N 44°24' E 008°54'0 0.0
2014-Aug-28 11:33N 44°24' E 008°54'0 0.0
2014-Aug-28 10:33N 44°24' E 008°54'6 6.1
2014-Aug-28 09:33N 44°20' E 008°59'1111.4
2014-Aug-28 08:33N 44°11' E 008°48'1212.3
2014-Aug-28 07:33N 44°03' E 008°36'1313.1
2014-Aug-28 06:33N 43°54' E 008°23'4413.1
2014-Aug-28 03:13N 43°25' E 007°37'2313.7
2014-Aug-28 01:33N 43°13' E 007°10'1414.1
2014-Aug-28 00:32N 43°04' E 006°55'1313.6
2014-Aug-27 23:33N 42°56' E 006°40'1312.9
2014-Aug-27 22:33N 42°53' E 006°23'1413.9
2014-Aug-27 21:33N 42°53' E 006°04'1413.6
2014-Aug-27 20:33N 42°57' E 005°46'1716.8
2014-Aug-27 19:34N 43°05' E 005°26'1110.9
2014-Aug-27 18:33N 43°09' E 005°12'1111.1
2014-Aug-27 17:33N 43°20' E 005°17'3 2.6
2014-Aug-27 16:31N 43°21' E 005°20'0 0.0
2014-Aug-27 15:31N 43°21' E 005°20'0 0.0
2014-Aug-27 14:33N 43°21' E 005°20'0 0.0
2014-Aug-27 13:21N 43°21' E 005°20'0 0.0
2014-Aug-27 10:33N 43°21' E 005°20'8 7.9
2014-Aug-27 09:33N 43°16' E 005°11'1111.5
2014-Aug-27 08:33N 43°05' E 005°06'1513.7
2014-Aug-27 07:26N 42°54' E 004°52'1214.2
2014-Aug-27 06:33N 42°45' E 004°41'1613.9
2014-Aug-27 05:22N 42°33' E 004°26'3314.4
2014-Aug-27 03:05N 42°10' E 003°54'815.3
2014-Aug-27 02:33N 42°05' E 003°45'1313.4
2014-Aug-27 01:33N 41°57' E 003°31'1514.6
2014-Aug-27 00:33N 41°48' E 003°15'1414.1
2014-Aug-26 23:33N 41°40' E 002°60'1414.3
2014-Aug-26 22:33N 41°31' E 002°45'1514.8
2014-Aug-26 21:33N 41°23' E 002°28'1514.6
2014-Aug-26 20:33N 41°16' E 002°11'5 4.7
2014-Aug-26 19:28N 41°21' E 002°10'0 0.0
2014-Aug-26 18:10N 41°21' E 002°10'0 0.0
2014-Aug-26 16:33N 41°21' E 002°10'0 0.0
2014-Aug-26 15:27N 41°21' E 002°10'0 0.0
2014-Aug-26 13:13N 41°21' E 002°10'1 2.1
2014-Aug-26 12:33N 41°20' E 002°10'1111.4
2014-Aug-26 11:33N 41°11' E 002°01'1717.5
2014-Aug-26 10:33N 41°01' E 001°41'1817.5
2014-Aug-26 09:33N 40°51' E 001°22'1817.7
2014-Aug-26 08:33N 40°41' E 001°03'1717.6
2014-Aug-26 07:33N 40°29' E 000°47'1817.7
2014-Aug-26 06:33N 40°16' E 000°31'1817.4
2014-Aug-26 05:31N 40°03' E 000°14'10 1.4
2014-Aug-25 22:29N 39°57' E 000°04'1110.8
2014-Aug-25 21:26N 39°52' E 000°17'1112.6
2014-Aug-25 20:33N 39°47' E 000°30'1413.8
2014-Aug-25 19:34N 39°42' E 000°46'3014.6
2014-Aug-25 17:30N 39°30' E 001°22'1414.4
2014-Aug-25 16:33N 39°25' E 001°39'1414.5
2014-Aug-25 15:33N 39°20' E 001°56'1514.7
2014-Aug-25 14:33N 39°14' E 002°13'1514.6
2014-Aug-25 13:33N 39°09' E 002°31'1514.9
2014-Aug-25 12:33N 39°03' E 002°49'1515.1
2014-Aug-25 11:33N 38°58' E 003°07'1515.1
2014-Aug-25 10:33N 38°55' E 003°26'1515.1
2014-Aug-25 09:34N 38°51' E 003°45'1615.3
2014-Aug-25 08:32N 38°47' E 004°04'1515.5
2014-Aug-25 07:33N 38°44' E 004°23'23715.8
2014-Aug-24 16:32N 37°47' E 009°16'1715.5
2014-Aug-24 15:28N 37°43' E 009°37'1415.1
2014-Aug-24 14:33N 37°41' E 009°54'1515.2
2014-Aug-24 13:33N 37°38' E 010°13'1615.5
2014-Aug-24 12:33N 37°36' E 010°32'1715.8
2014-Aug-24 11:30N 37°33' E 010°53'1615.3
2014-Aug-24 10:29N 37°27' E 011°11'6215.8
2014-Aug-24 06:33N 37°00' E 012°21'1615.7
2014-Aug-24 05:33N 36°55' E 012°40'1616.0
2014-Aug-24 04:34N 36°50' E 012°58'1615.8
2014-Aug-24 03:33N 36°44' E 013°17'1615.5
2014-Aug-24 02:33N 36°40' E 013°35'1615.8
2014-Aug-24 01:34N 36°35' E 013°54'6816.0
2014-Aug-23 21:17N 36°12' E 015°14'1215.9
2014-Aug-23 20:33N 36°08' E 015°28'1615.7
2014-Aug-23 19:33N 36°04' E 015°46'  

Dump ship's entire track history